sensor_id;sensor_type;location;lat;lon;timestamp;temperature;humidity
68556;HTU21D;55544;51.032;5.866;2024-02-14T00:01:06;10.33;80.57
68556;HTU21D;55544;51.032;5.866;2024-02-14T00:03:35;10.29;80.54
68556;HTU21D;55544;51.032;5.866;2024-02-14T00:06:04;10.36;80.43
68556;HTU21D;55544;51.032;5.866;2024-02-14T00:08:31;10.41;80.09
68556;HTU21D;55544;51.032;5.866;2024-02-14T00:10:57;10.38;80.17
68556;HTU21D;55544;51.032;5.866;2024-02-14T00:13:22;10.35;80.74
68556;HTU21D;55544;51.032;5.866;2024-02-14T00:15:48;10.38;80.63
68556;HTU21D;55544;51.032;5.866;2024-02-14T00:18:14;10.41;80.25
68556;HTU21D;55544;51.032;5.866;2024-02-14T00:20:44;10.48;80.28
68556;HTU21D;55544;51.032;5.866;2024-02-14T00:23:10;10.43;80.46
68556;HTU21D;55544;51.032;5.866;2024-02-14T00:25:37;10.35;80.97
68556;HTU21D;55544;51.032;5.866;2024-02-14T00:28:02;10.39;80.83
68556;HTU21D;55544;51.032;5.866;2024-02-14T00:30:29;10.29;81.65
68556;HTU21D;55544;51.032;5.866;2024-02-14T00:32:55;10.34;81.43
68556;HTU21D;55544;51.032;5.866;2024-02-14T00:35:21;10.50;81.10
68556;HTU21D;55544;51.032;5.866;2024-02-14T00:37:47;10.45;81.05
68556;HTU21D;55544;51.032;5.866;2024-02-14T00:40:13;10.45;81.26
68556;HTU21D;55544;51.032;5.866;2024-02-14T00:42:38;10.44;81.43
68556;HTU21D;55544;51.032;5.866;2024-02-14T00:45:05;10.48;81.33
68556;HTU21D;55544;51.032;5.866;2024-02-14T00:47:34;10.45;81.49
68556;HTU21D;55544;51.032;5.866;2024-02-14T00:50:01;10.40;81.84
68556;HTU21D;55544;51.032;5.866;2024-02-14T00:52:26;10.41;81.65
68556;HTU21D;55544;51.032;5.866;2024-02-14T00:54:52;10.44;81.60
68556;HTU21D;55544;51.032;5.866;2024-02-14T00:57:18;10.46;81.63
68556;HTU21D;55544;51.032;5.866;2024-02-14T00:59:45;10.43;81.69
68556;HTU21D;55544;51.032;5.866;2024-02-14T01:02:11;10.51;81.52
68556;HTU21D;55544;51.032;5.866;2024-02-14T01:04:37;10.53;81.14
68556;HTU21D;55544;51.032;5.866;2024-02-14T01:07:03;10.51;81.47
68556;HTU21D;55544;51.032;5.866;2024-02-14T01:09:29;10.53;81.21
68556;HTU21D;55544;51.032;5.866;2024-02-14T01:11:55;10.56;81.01
68556;HTU21D;55544;51.032;5.866;2024-02-14T01:14:21;10.60;80.80
68556;HTU21D;55544;51.032;5.866;2024-02-14T01:16:47;10.54;81.19
68556;HTU21D;55544;51.032;5.866;2024-02-14T01:19:13;10.56;80.89
68556;HTU21D;55544;51.032;5.866;2024-02-14T01:21:39;10.60;80.97
68556;HTU21D;55544;51.032;5.866;2024-02-14T01:24:05;10.57;81.12
68556;HTU21D;55544;51.032;5.866;2024-02-14T01:26:31;10.56;81.21
68556;HTU21D;55544;51.032;5.866;2024-02-14T01:28:58;10.58;81.27
68556;HTU21D;55544;51.032;5.866;2024-02-14T01:31:26;10.59;81.04
68556;HTU21D;55544;51.032;5.866;2024-02-14T01:33:53;10.63;81.01
68556;HTU21D;55544;51.032;5.866;2024-02-14T01:36:19;10.69;80.91
68556;HTU21D;55544;51.032;5.866;2024-02-14T01:38:44;10.58;80.96
68556;HTU21D;55544;51.032;5.866;2024-02-14T01:41:10;10.63;81.40
68556;HTU21D;55544;51.032;5.866;2024-02-14T01:43:36;10.74;81.08
68556;HTU21D;55544;51.032;5.866;2024-02-14T01:46:07;10.70;81.12
68556;HTU21D;55544;51.032;5.866;2024-02-14T01:48:36;10.68;81.15
68556;HTU21D;55544;51.032;5.866;2024-02-14T01:51:03;10.69;81.32
68556;HTU21D;55544;51.032;5.866;2024-02-14T01:53:31;10.77;81.17
68556;HTU21D;55544;51.032;5.866;2024-02-14T01:55:59;10.78;81.39
68556;HTU21D;55544;51.032;5.866;2024-02-14T01:58:25;10.73;81.40
68556;HTU21D;55544;51.032;5.866;2024-02-14T02:00:51;10.71;81.94
68556;HTU21D;55544;51.032;5.866;2024-02-14T02:03:25;10.82;81.35
68556;HTU21D;55544;51.032;5.866;2024-02-14T02:05:52;10.87;81.31
68556;HTU21D;55544;51.032;5.866;2024-02-14T02:08:20;10.79;81.23
68556;HTU21D;55544;51.032;5.866;2024-02-14T02:10:46;10.84;81.19
68556;HTU21D;55544;51.032;5.866;2024-02-14T02:13:12;10.73;81.48
68556;HTU21D;55544;51.032;5.866;2024-02-14T02:15:38;10.73;81.52
68556;HTU21D;55544;51.032;5.866;2024-02-14T02:18:04;10.79;81.39
68556;HTU21D;55544;51.032;5.866;2024-02-14T02:20:33;10.79;81.54
68556;HTU21D;55544;51.032;5.866;2024-02-14T02:22:58;10.77;81.52
68556;HTU21D;55544;51.032;5.866;2024-02-14T02:25:25;10.81;81.54
68556;HTU21D;55544;51.032;5.866;2024-02-14T02:27:55;10.74;82.12
68556;HTU21D;55544;51.032;5.866;2024-02-14T02:30:24;10.68;82.42
68556;HTU21D;55544;51.032;5.866;2024-02-14T02:32:51;10.77;82.08
68556;HTU21D;55544;51.032;5.866;2024-02-14T02:35:17;10.78;82.06
68556;HTU21D;55544;51.032;5.866;2024-02-14T02:37:45;10.80;81.98
68556;HTU21D;55544;51.032;5.866;2024-02-14T02:40:13;10.78;82.14
68556;HTU21D;55544;51.032;5.866;2024-02-14T02:42:40;10.82;82.20
68556;HTU21D;55544;51.032;5.866;2024-02-14T02:45:06;10.84;82.35
68556;HTU21D;55544;51.032;5.866;2024-02-14T02:47:32;10.86;82.72
68556;HTU21D;55544;51.032;5.866;2024-02-14T02:49:58;10.80;83.11
68556;HTU21D;55544;51.032;5.866;2024-02-14T02:52:27;10.73;83.84
68556;HTU21D;55544;51.032;5.866;2024-02-14T02:54:53;10.82;83.85
68556;HTU21D;55544;51.032;5.866;2024-02-14T02:57:19;10.73;84.61
68556;HTU21D;55544;51.032;5.866;2024-02-14T02:59:45;10.72;84.84
68556;HTU21D;55544;51.032;5.866;2024-02-14T03:02:14;10.69;85.01
68556;HTU21D;55544;51.032;5.866;2024-02-14T03:04:39;10.58;85.74
68556;HTU21D;55544;51.032;5.866;2024-02-14T03:07:05;10.68;85.19
68556;HTU21D;55544;51.032;5.866;2024-02-14T03:09:34;10.65;85.61
68556;HTU21D;55544;51.032;5.866;2024-02-14T03:12:03;10.64;85.99
68556;HTU21D;55544;51.032;5.866;2024-02-14T03:14:32;10.59;86.09
68556;HTU21D;55544;51.032;5.866;2024-02-14T03:17:05;10.62;85.84
68556;HTU21D;55544;51.032;5.866;2024-02-14T03:19:31;10.62;86.09
68556;HTU21D;55544;51.032;5.866;2024-02-14T03:21:58;10.71;85.81
68556;HTU21D;55544;51.032;5.866;2024-02-14T03:24:24;10.67;85.77
68556;HTU21D;55544;51.032;5.866;2024-02-14T03:26:51;10.67;86.00
68556;HTU21D;55544;51.032;5.866;2024-02-14T03:29:20;10.64;86.05
68556;HTU21D;55544;51.032;5.866;2024-02-14T03:31:47;10.77;85.58
68556;HTU21D;55544;51.032;5.866;2024-02-14T03:34:13;10.74;85.19
68556;HTU21D;55544;51.032;5.866;2024-02-14T03:36:38;10.72;85.51
68556;HTU21D;55544;51.032;5.866;2024-02-14T03:39:05;10.72;85.28
68556;HTU21D;55544;51.032;5.866;2024-02-14T03:41:32;10.66;85.53
68556;HTU21D;55544;51.032;5.866;2024-02-14T03:43:58;10.74;85.29
68556;HTU21D;55544;51.032;5.866;2024-02-14T03:46:27;10.70;85.43
68556;HTU21D;55544;51.032;5.866;2024-02-14T03:48:54;10.68;85.55
68556;HTU21D;55544;51.032;5.866;2024-02-14T03:51:19;10.71;85.42
68556;HTU21D;55544;51.032;5.866;2024-02-14T03:53:46;10.71;85.78
68556;HTU21D;55544;51.032;5.866;2024-02-14T03:56:12;10.79;85.70
68556;HTU21D;55544;51.032;5.866;2024-02-14T03:58:40;10.80;85.35
68556;HTU21D;55544;51.032;5.866;2024-02-14T04:01:05;10.73;85.50
68556;HTU21D;55544;51.032;5.866;2024-02-14T04:03:31;10.77;85.61
68556;HTU21D;55544;51.032;5.866;2024-02-14T04:05:57;10.78;85.31
68556;HTU21D;55544;51.032;5.866;2024-02-14T04:08:23;10.80;85.55
68556;HTU21D;55544;51.032;5.866;2024-02-14T04:10:49;10.69;85.87
68556;HTU21D;55544;51.032;5.866;2024-02-14T04:13:19;10.75;85.93
68556;HTU21D;55544;51.032;5.866;2024-02-14T04:15:46;10.81;85.96
68556;HTU21D;55544;51.032;5.866;2024-02-14T04:18:12;10.81;86.17
68556;HTU21D;55544;51.032;5.866;2024-02-14T04:20:40;10.68;86.90
68556;HTU21D;55544;51.032;5.866;2024-02-14T04:23:06;10.73;86.83
68556;HTU21D;55544;51.032;5.866;2024-02-14T04:25:33;10.70;87.12
68556;HTU21D;55544;51.032;5.866;2024-02-14T04:27:59;10.67;87.30
68556;HTU21D;55544;51.032;5.866;2024-02-14T04:30:25;10.66;87.85
68556;HTU21D;55544;51.032;5.866;2024-02-14T04:32:51;10.62;88.06
68556;HTU21D;55544;51.032;5.866;2024-02-14T04:35:20;10.66;87.89
68556;HTU21D;55544;51.032;5.866;2024-02-14T04:37:46;10.64;88.27
68556;HTU21D;55544;51.032;5.866;2024-02-14T04:40:13;10.58;88.48
68556;HTU21D;55544;51.032;5.866;2024-02-14T04:42:40;10.55;89.10
68556;HTU21D;55544;51.032;5.866;2024-02-14T04:45:06;10.58;88.89
68556;HTU21D;55544;51.032;5.866;2024-02-14T04:47:32;10.54;89.04
68556;HTU21D;55544;51.032;5.866;2024-02-14T04:49:58;10.56;89.57
68556;HTU21D;55544;51.032;5.866;2024-02-14T04:52:25;10.62;89.45
68556;HTU21D;55544;51.032;5.866;2024-02-14T04:54:51;10.56;89.65
68556;HTU21D;55544;51.032;5.866;2024-02-14T04:57:17;10.59;89.58
68556;HTU21D;55544;51.032;5.866;2024-02-14T04:59:44;10.48;90.14
68556;HTU21D;55544;51.032;5.866;2024-02-14T05:02:09;10.48;90.36
68556;HTU21D;55544;51.032;5.866;2024-02-14T05:04:36;10.50;90.32
68556;HTU21D;55544;51.032;5.866;2024-02-14T05:07:04;10.51;90.42
68556;HTU21D;55544;51.032;5.866;2024-02-14T05:09:29;10.51;90.61
68556;HTU21D;55544;51.032;5.866;2024-02-14T05:11:55;10.53;90.57
68556;HTU21D;55544;51.032;5.866;2024-02-14T05:14:21;10.57;90.31
68556;HTU21D;55544;51.032;5.866;2024-02-14T05:16:47;10.60;90.37
68556;HTU21D;55544;51.032;5.866;2024-02-14T05:19:13;10.55;90.63
68556;HTU21D;55544;51.032;5.866;2024-02-14T05:21:38;10.60;90.80
68556;HTU21D;55544;51.032;5.866;2024-02-14T05:24:05;10.65;91.02
68556;HTU21D;55544;51.032;5.866;2024-02-14T05:26:31;10.60;90.85
68556;HTU21D;55544;51.032;5.866;2024-02-14T05:28:57;10.64;90.69
68556;HTU21D;55544;51.032;5.866;2024-02-14T05:31:24;10.71;90.85
68556;HTU21D;55544;51.032;5.866;2024-02-14T05:33:50;10.75;90.25
68556;HTU21D;55544;51.032;5.866;2024-02-14T05:36:15;10.82;90.02
68556;HTU21D;55544;51.032;5.866;2024-02-14T05:38:42;10.82;90.08
68556;HTU21D;55544;51.032;5.866;2024-02-14T05:41:08;10.81;90.07
68556;HTU21D;55544;51.032;5.866;2024-02-14T05:43:34;10.81;89.89
68556;HTU21D;55544;51.032;5.866;2024-02-14T05:46:00;10.85;89.92
68556;HTU21D;55544;51.032;5.866;2024-02-14T05:48:26;10.89;89.79
68556;HTU21D;55544;51.032;5.866;2024-02-14T05:50:52;10.90;89.58
68556;HTU21D;55544;51.032;5.866;2024-02-14T05:53:17;10.86;89.78
68556;HTU21D;55544;51.032;5.866;2024-02-14T05:55:43;11.00;89.32
68556;HTU21D;55544;51.032;5.866;2024-02-14T05:58:09;10.98;89.23
68556;HTU21D;55544;51.032;5.866;2024-02-14T06:00:35;10.99;89.22
68556;HTU21D;55544;51.032;5.866;2024-02-14T06:03:01;11.03;89.25
68556;HTU21D;55544;51.032;5.866;2024-02-14T06:05:27;10.99;89.21
68556;HTU21D;55544;51.032;5.866;2024-02-14T06:07:53;11.09;88.80
68556;HTU21D;55544;51.032;5.866;2024-02-14T06:10:19;11.05;88.54
68556;HTU21D;55544;51.032;5.866;2024-02-14T06:12:45;11.11;88.25
68556;HTU21D;55544;51.032;5.866;2024-02-14T06:15:11;11.07;88.18
68556;HTU21D;55544;51.032;5.866;2024-02-14T06:17:37;11.04;88.23
68556;HTU21D;55544;51.032;5.866;2024-02-14T06:20:03;11.00;88.37
68556;HTU21D;55544;51.032;5.866;2024-02-14T06:22:33;11.02;88.17
68556;HTU21D;55544;51.032;5.866;2024-02-14T06:25:00;10.98;88.47
68556;HTU21D;55544;51.032;5.866;2024-02-14T06:27:26;11.04;87.63
68556;HTU21D;55544;51.032;5.866;2024-02-14T06:29:53;10.99;88.36
68556;HTU21D;55544;51.032;5.866;2024-02-14T06:32:19;10.97;88.41
68556;HTU21D;55544;51.032;5.866;2024-02-14T06:34:44;11.01;88.18
68556;HTU21D;55544;51.032;5.866;2024-02-14T06:37:10;11.03;88.51
68556;HTU21D;55544;51.032;5.866;2024-02-14T06:39:35;11.04;88.40
68556;HTU21D;55544;51.032;5.866;2024-02-14T06:42:01;11.01;88.00
68556;HTU21D;55544;51.032;5.866;2024-02-14T06:44:27;11.07;88.47
68556;HTU21D;55544;51.032;5.866;2024-02-14T06:46:53;11.05;88.07
68556;HTU21D;55544;51.032;5.866;2024-02-14T06:49:19;11.01;88.59
68556;HTU21D;55544;51.032;5.866;2024-02-14T06:51:44;11.03;88.44
68556;HTU21D;55544;51.032;5.866;2024-02-14T06:54:11;11.07;88.25
68556;HTU21D;55544;51.032;5.866;2024-02-14T06:56:39;11.13;87.97
68556;HTU21D;55544;51.032;5.866;2024-02-14T06:59:05;-18.90;88.67
68556;HTU21D;55544;51.032;5.866;2024-02-14T07:01:31;11.14;88.06
68556;HTU21D;55544;51.032;5.866;2024-02-14T07:03:58;11.11;88.01
68556;HTU21D;55544;51.032;5.866;2024-02-14T07:06:24;11.15;88.02
68556;HTU21D;55544;51.032;5.866;2024-02-14T07:08:49;11.15;88.06
68556;HTU21D;55544;51.032;5.866;2024-02-14T07:11:16;11.15;87.66
68556;HTU21D;55544;51.032;5.866;2024-02-14T07:13:42;11.15;87.96
68556;HTU21D;55544;51.032;5.866;2024-02-14T07:16:08;11.14;87.63
68556;HTU21D;55544;51.032;5.866;2024-02-14T07:18:34;11.14;88.11
68556;HTU21D;55544;51.032;5.866;2024-02-14T07:21:03;11.23;87.33
68556;HTU21D;55544;51.032;5.866;2024-02-14T07:23:32;11.18;87.68
68556;HTU21D;55544;51.032;5.866;2024-02-14T07:26:00;11.22;87.75
68556;HTU21D;55544;51.032;5.866;2024-02-14T07:28:27;11.30;87.42
68556;HTU21D;55544;51.032;5.866;2024-02-14T07:30:52;11.26;87.58
68556;HTU21D;55544;51.032;5.866;2024-02-14T07:33:18;11.34;86.90
68556;HTU21D;55544;51.032;5.866;2024-02-14T07:35:44;11.37;86.88
68556;HTU21D;55544;51.032;5.866;2024-02-14T07:38:09;11.32;87.03
68556;HTU21D;55544;51.032;5.866;2024-02-14T07:40:35;11.34;86.83
68556;HTU21D;55544;51.032;5.866;2024-02-14T07:43:01;11.38;87.12
68556;HTU21D;55544;51.032;5.866;2024-02-14T07:45:27;11.38;86.93
68556;HTU21D;55544;51.032;5.866;2024-02-14T07:47:53;11.47;86.24
68556;HTU21D;55544;51.032;5.866;2024-02-14T07:50:19;11.52;86.38
68556;HTU21D;55544;51.032;5.866;2024-02-14T07:52:46;11.51;85.99
68556;HTU21D;55544;51.032;5.866;2024-02-14T07:55:13;11.57;86.06
68556;HTU21D;55544;51.032;5.866;2024-02-14T07:57:40;11.61;85.74
68556;HTU21D;55544;51.032;5.866;2024-02-14T08:00:07;11.67;85.67
68556;HTU21D;55544;51.032;5.866;2024-02-14T08:02:36;11.63;85.93
68556;HTU21D;55544;51.032;5.866;2024-02-14T08:05:05;11.67;85.54
68556;HTU21D;55544;51.032;5.866;2024-02-14T08:07:30;11.77;84.84
68556;HTU21D;55544;51.032;5.866;2024-02-14T08:09:56;11.73;85.27
68556;HTU21D;55544;51.032;5.866;2024-02-14T08:12:22;11.77;84.66
68556;HTU21D;55544;51.032;5.866;2024-02-14T08:14:50;11.75;85.03
68556;HTU21D;55544;51.032;5.866;2024-02-14T08:17:16;11.83;84.53
68556;HTU21D;55544;51.032;5.866;2024-02-14T08:19:41;11.90;84.41
68556;HTU21D;55544;51.032;5.866;2024-02-14T08:22:07;11.88;84.71
68556;HTU21D;55544;51.032;5.866;2024-02-14T08:24:33;11.97;83.94
68556;HTU21D;55544;51.032;5.866;2024-02-14T08:26:59;12.03;83.61
68556;HTU21D;55544;51.032;5.866;2024-02-14T08:29:25;12.01;83.87
68556;HTU21D;55544;51.032;5.866;2024-02-14T08:31:50;11.99;83.96
68556;HTU21D;55544;51.032;5.866;2024-02-14T08:34:16;12.06;83.52
68556;HTU21D;55544;51.032;5.866;2024-02-14T08:36:42;12.07;83.55
68556;HTU21D;55544;51.032;5.866;2024-02-14T08:39:09;12.15;83.07
68556;HTU21D;55544;51.032;5.866;2024-02-14T08:41:39;12.19;83.13
68556;HTU21D;55544;51.032;5.866;2024-02-14T08:44:07;12.27;82.74
68556;HTU21D;55544;51.032;5.866;2024-02-14T08:46:33;12.27;82.67
68556;HTU21D;55544;51.032;5.866;2024-02-14T08:49:02;12.29;82.91
68556;HTU21D;55544;51.032;5.866;2024-02-14T08:51:30;12.27;82.68
68556;HTU21D;55544;51.032;5.866;2024-02-14T08:53:56;12.50;81.85
68556;HTU21D;55544;51.032;5.866;2024-02-14T08:56:25;12.45;82.05
68556;HTU21D;55544;51.032;5.866;2024-02-14T08:58:50;12.44;82.30
68556;HTU21D;55544;51.032;5.866;2024-02-14T09:01:16;12.50;82.04
68556;HTU21D;55544;51.032;5.866;2024-02-14T09:03:43;12.50;81.73
68556;HTU21D;55544;51.032;5.866;2024-02-14T09:06:14;12.48;81.97
68556;HTU21D;55544;51.032;5.866;2024-02-14T09:08:40;12.52;82.06
68556;HTU21D;55544;51.032;5.866;2024-02-14T09:11:06;12.45;82.07
68556;HTU21D;55544;51.032;5.866;2024-02-14T09:13:31;12.61;81.26
68556;HTU21D;55544;51.032;5.866;2024-02-14T09:15:57;12.55;81.81
68556;HTU21D;55544;51.032;5.866;2024-02-14T09:18:23;12.57;81.97
68556;HTU21D;55544;51.032;5.866;2024-02-14T09:20:50;12.63;81.57
68556;HTU21D;55544;51.032;5.866;2024-02-14T09:23:16;12.62;81.68
68556;HTU21D;55544;51.032;5.866;2024-02-14T09:25:46;12.52;82.19
68556;HTU21D;55544;51.032;5.866;2024-02-14T09:28:18;12.63;82.41
68556;HTU21D;55544;51.032;5.866;2024-02-14T09:30:44;12.58;82.47
68556;HTU21D;55544;51.032;5.866;2024-02-14T09:33:10;12.67;82.21
68556;HTU21D;55544;51.032;5.866;2024-02-14T09:35:36;12.61;82.33
68556;HTU21D;55544;51.032;5.866;2024-02-14T09:38:05;12.71;81.84
68556;HTU21D;55544;51.032;5.866;2024-02-14T09:40:31;12.63;82.33
68556;HTU21D;55544;51.032;5.866;2024-02-14T09:43:03;12.73;81.85
68556;HTU21D;55544;51.032;5.866;2024-02-14T09:45:31;12.70;81.83
68556;HTU21D;55544;51.032;5.866;2024-02-14T09:47:59;12.67;81.87
68556;HTU21D;55544;51.032;5.866;2024-02-14T09:50:26;12.71;82.00
68556;HTU21D;55544;51.032;5.866;2024-02-14T09:52:54;12.69;82.34
68556;HTU21D;55544;51.032;5.866;2024-02-14T09:55:23;12.71;82.46
68556;HTU21D;55544;51.032;5.866;2024-02-14T09:57:50;12.73;82.86
68556;HTU21D;55544;51.032;5.866;2024-02-14T10:00:17;12.55;84.27
68556;HTU21D;55544;51.032;5.866;2024-02-14T10:02:43;12.46;84.83
68556;HTU21D;55544;51.032;5.866;2024-02-14T10:05:09;12.43;85.35
68556;HTU21D;55544;51.032;5.866;2024-02-14T10:07:41;12.34;85.93
68556;HTU21D;55544;51.032;5.866;2024-02-14T10:10:08;12.31;86.12
68556;HTU21D;55544;51.032;5.866;2024-02-14T10:12:33;12.36;86.04
68556;HTU21D;55544;51.032;5.866;2024-02-14T10:14:59;12.37;86.19
68556;HTU21D;55544;51.032;5.866;2024-02-14T10:17:27;12.41;86.40
68556;HTU21D;55544;51.032;5.866;2024-02-14T10:20:00;12.44;86.38
68556;HTU21D;55544;51.032;5.866;2024-02-14T10:22:35;12.47;86.75
68556;HTU21D;55544;51.032;5.866;2024-02-14T10:25:05;12.42;86.65
68556;HTU21D;55544;51.032;5.866;2024-02-14T10:27:38;12.51;86.83
68556;HTU21D;55544;51.032;5.866;2024-02-14T10:30:08;12.52;86.46
68556;HTU21D;55544;51.032;5.866;2024-02-14T10:32:39;12.49;86.35
68556;HTU21D;55544;51.032;5.866;2024-02-14T10:35:08;12.57;86.20
68556;HTU21D;55544;51.032;5.866;2024-02-14T10:37:39;12.65;85.79
68556;HTU21D;55544;51.032;5.866;2024-02-14T10:40:07;12.70;85.33
68556;HTU21D;55544;51.032;5.866;2024-02-14T10:42:34;12.75;85.22
68556;HTU21D;55544;51.032;5.866;2024-02-14T10:45:01;12.77;85.26
68556;HTU21D;55544;51.032;5.866;2024-02-14T10:47:32;12.84;85.08
68556;HTU21D;55544;51.032;5.866;2024-02-14T10:50:03;12.75;85.63
68556;HTU21D;55544;51.032;5.866;2024-02-14T10:52:35;12.78;85.98
68556;HTU21D;55544;51.032;5.866;2024-02-14T10:55:04;12.79;86.06
68556;HTU21D;55544;51.032;5.866;2024-02-14T10:57:31;12.88;85.42
68556;HTU21D;55544;51.032;5.866;2024-02-14T11:00:08;12.92;85.09
68556;HTU21D;55544;51.032;5.866;2024-02-14T11:02:40;12.92;85.16
68556;HTU21D;55544;51.032;5.866;2024-02-14T11:05:12;12.95;84.70
68556;HTU21D;55544;51.032;5.866;2024-02-14T11:07:49;12.97;84.82
68556;HTU21D;55544;51.032;5.866;2024-02-14T11:10:20;12.93;84.76
68556;HTU21D;55544;51.032;5.866;2024-02-14T11:12:48;13.00;84.88
68556;HTU21D;55544;51.032;5.866;2024-02-14T11:15:22;12.88;85.53
68556;HTU21D;55544;51.032;5.866;2024-02-14T11:17:50;12.84;86.18
68556;HTU21D;55544;51.032;5.866;2024-02-14T11:20:30;12.85;86.09
68556;HTU21D;55544;51.032;5.866;2024-02-14T11:23:01;12.87;86.48
68556;HTU21D;55544;51.032;5.866;2024-02-14T11:25:30;12.74;86.80
68556;HTU21D;55544;51.032;5.866;2024-02-14T11:27:58;12.75;87.22
68556;HTU21D;55544;51.032;5.866;2024-02-14T11:30:32;12.75;87.28
68556;HTU21D;55544;51.032;5.866;2024-02-14T11:35:50;12.88;86.86
68556;HTU21D;55544;51.032;5.866;2024-02-14T11:38:18;12.80;87.23
68556;HTU21D;55544;51.032;5.866;2024-02-14T11:40:44;12.94;86.50
68556;HTU21D;55544;51.032;5.866;2024-02-14T11:43:18;12.97;86.32
68556;HTU21D;55544;51.032;5.866;2024-02-14T11:45:44;13.00;86.11
68556;HTU21D;55544;51.032;5.866;2024-02-14T11:48:20;12.97;86.24
68556;HTU21D;55544;51.032;5.866;2024-02-14T11:50:47;13.02;86.26
68556;HTU21D;55544;51.032;5.866;2024-02-14T11:53:15;13.07;85.80
68556;HTU21D;55544;51.032;5.866;2024-02-14T11:55:45;13.10;86.10
68556;HTU21D;55544;51.032;5.866;2024-02-14T11:58:16;13.14;86.09
68556;HTU21D;55544;51.032;5.866;2024-02-14T12:00:46;13.18;86.20
68556;HTU21D;55544;51.032;5.866;2024-02-14T12:03:18;13.20;85.86
68556;HTU21D;55544;51.032;5.866;2024-02-14T12:05:46;13.22;85.77
68556;HTU21D;55544;51.032;5.866;2024-02-14T12:08:13;13.23;85.68
68556;HTU21D;55544;51.032;5.866;2024-02-14T12:10:42;13.26;85.96
68556;HTU21D;55544;51.032;5.866;2024-02-14T12:13:09;13.24;85.98
68556;HTU21D;55544;51.032;5.866;2024-02-14T12:15:41;13.23;86.58
68556;HTU21D;55544;51.032;5.866;2024-02-14T12:18:10;13.23;86.71
68556;HTU21D;55544;51.032;5.866;2024-02-14T12:20:37;13.34;86.42
68556;HTU21D;55544;51.032;5.866;2024-02-14T12:23:04;13.31;86.78
68556;HTU21D;55544;51.032;5.866;2024-02-14T12:25:31;13.32;87.13
68556;HTU21D;55544;51.032;5.866;2024-02-14T12:27:57;13.33;87.47
68556;HTU21D;55544;51.032;5.866;2024-02-14T12:30:42;13.33;87.39
68556;HTU21D;55544;51.032;5.866;2024-02-14T12:33:11;13.36;87.13
68556;HTU21D;55544;51.032;5.866;2024-02-14T12:35:44;13.34;87.10
68556;HTU21D;55544;51.032;5.866;2024-02-14T12:38:11;13.35;86.92
68556;HTU21D;55544;51.032;5.866;2024-02-14T12:40:38;13.26;87.02
68556;HTU21D;55544;51.032;5.866;2024-02-14T12:43:10;13.19;87.86
68556;HTU21D;55544;51.032;5.866;2024-02-14T12:45:37;13.17;88.15
68556;HTU21D;55544;51.032;5.866;2024-02-14T12:48:04;13.22;88.18
68556;HTU21D;55544;51.032;5.866;2024-02-14T12:50:31;13.11;88.70
68556;HTU21D;55544;51.032;5.866;2024-02-14T12:52:57;13.07;89.12
68556;HTU21D;55544;51.032;5.866;2024-02-14T12:55:24;13.06;89.34
68556;HTU21D;55544;51.032;5.866;2024-02-14T12:57:54;13.04;89.54
68556;HTU21D;55544;51.032;5.866;2024-02-14T13:00:21;12.95;90.31
68556;HTU21D;55544;51.032;5.866;2024-02-14T13:02:50;13.03;90.41
68556;HTU21D;55544;51.032;5.866;2024-02-14T13:05:16;12.93;90.82
68556;HTU21D;55544;51.032;5.866;2024-02-14T13:07:43;13.04;90.72
68556;HTU21D;55544;51.032;5.866;2024-02-14T13:10:09;13.06;90.69
68556;HTU21D;55544;51.032;5.866;2024-02-14T13:12:36;13.09;90.53
68556;HTU21D;55544;51.032;5.866;2024-02-14T13:15:03;13.05;90.60
68556;HTU21D;55544;51.032;5.866;2024-02-14T13:17:29;13.05;90.90
68556;HTU21D;55544;51.032;5.866;2024-02-14T13:19:55;13.11;90.98
68556;HTU21D;55544;51.032;5.866;2024-02-14T13:22:21;13.03;91.38
68556;HTU21D;55544;51.032;5.866;2024-02-14T13:24:46;13.04;91.31
68556;HTU21D;55544;51.032;5.866;2024-02-14T13:27:12;13.07;91.49
68556;HTU21D;55544;51.032;5.866;2024-02-14T13:29:39;13.10;91.51
68556;HTU21D;55544;51.032;5.866;2024-02-14T13:32:05;13.07;91.39
68556;HTU21D;55544;51.032;5.866;2024-02-14T13:34:33;13.08;91.63
68556;HTU21D;55544;51.032;5.866;2024-02-14T13:37:00;13.07;91.76
68556;HTU21D;55544;51.032;5.866;2024-02-14T13:39:26;13.06;91.64
68556;HTU21D;55544;51.032;5.866;2024-02-14T13:41:51;13.03;91.85
68556;HTU21D;55544;51.032;5.866;2024-02-14T13:44:17;13.07;91.82
68556;HTU21D;55544;51.032;5.866;2024-02-14T13:46:45;13.04;91.81
68556;HTU21D;55544;51.032;5.866;2024-02-14T13:49:16;13.04;92.09
68556;HTU21D;55544;51.032;5.866;2024-02-14T13:51:50;13.05;92.11
68556;HTU21D;55544;51.032;5.866;2024-02-14T13:54:20;13.01;92.13
68556;HTU21D;55544;51.032;5.866;2024-02-14T13:56:47;13.07;92.10
68556;HTU21D;55544;51.032;5.866;2024-02-14T13:59:16;13.04;92.09
68556;HTU21D;55544;51.032;5.866;2024-02-14T14:01:42;13.04;92.08
68556;HTU21D;55544;51.032;5.866;2024-02-14T14:04:08;13.04;91.90
68556;HTU21D;55544;51.032;5.866;2024-02-14T14:06:34;13.00;92.42
68556;HTU21D;55544;51.032;5.866;2024-02-14T14:09:00;13.04;92.04
68556;HTU21D;55544;51.032;5.866;2024-02-14T14:11:28;13.00;91.93
68556;HTU21D;55544;51.032;5.866;2024-02-14T14:13:54;13.02;92.44
68556;HTU21D;55544;51.032;5.866;2024-02-14T14:16:20;13.01;92.33
68556;HTU21D;55544;51.032;5.866;2024-02-14T14:18:49;13.02;92.42
68556;HTU21D;55544;51.032;5.866;2024-02-14T14:21:15;13.00;92.54
68556;HTU21D;55544;51.032;5.866;2024-02-14T14:23:41;12.94;92.95
68556;HTU21D;55544;51.032;5.866;2024-02-14T14:26:06;12.94;92.94
68556;HTU21D;55544;51.032;5.866;2024-02-14T14:28:32;13.00;92.85
68556;HTU21D;55544;51.032;5.866;2024-02-14T14:30:58;13.02;93.07
68556;HTU21D;55544;51.032;5.866;2024-02-14T14:33:25;13.02;93.22
68556;HTU21D;55544;51.032;5.866;2024-02-14T14:35:52;13.03;93.08
68556;HTU21D;55544;51.032;5.866;2024-02-14T14:38:19;13.01;93.23
68556;HTU21D;55544;51.032;5.866;2024-02-14T14:40:46;13.04;93.20
68556;HTU21D;55544;51.032;5.866;2024-02-14T14:43:13;13.09;92.83
68556;HTU21D;55544;51.032;5.866;2024-02-14T14:45:39;12.99;93.35
68556;HTU21D;55544;51.032;5.866;2024-02-14T14:48:05;12.99;93.54
68556;HTU21D;55544;51.032;5.866;2024-02-14T14:50:31;13.00;93.37
68556;HTU21D;55544;51.032;5.866;2024-02-14T14:52:57;13.04;93.57
68556;HTU21D;55544;51.032;5.866;2024-02-14T14:58:15;13.16;93.32
68556;HTU21D;55544;51.032;5.866;2024-02-14T15:00:40;13.10;93.40
68556;HTU21D;55544;51.032;5.866;2024-02-14T15:03:08;13.11;92.88
68556;HTU21D;55544;51.032;5.866;2024-02-14T15:05:34;13.16;93.04
68556;HTU21D;55544;51.032;5.866;2024-02-14T15:07:59;13.18;92.95
68556;HTU21D;55544;51.032;5.866;2024-02-14T15:10:25;13.12;93.30
68556;HTU21D;55544;51.032;5.866;2024-02-14T15:12:51;13.15;93.13
68556;HTU21D;55544;51.032;5.866;2024-02-14T15:15:16;13.18;92.90
68556;HTU21D;55544;51.032;5.866;2024-02-14T15:17:44;13.20;92.88
68556;HTU21D;55544;51.032;5.866;2024-02-14T15:20:10;13.18;93.09